createdAt,value
2019-04-07T00:00:19.083Z,25.60
2019-04-07T00:02:48.527Z,24.07
2019-04-07T00:05:18.366Z,23.30
2019-04-07T00:07:47.518Z,24.33
2019-04-07T00:10:16.674Z,25.10
2019-04-07T00:12:45.804Z,24.10
2019-04-07T00:15:15.578Z,24.80
2019-04-07T00:17:44.673Z,24.53
2019-04-07T00:20:13.870Z,25.33
2019-04-07T00:22:42.921Z,25.13
2019-04-07T00:25:11.978Z,24.80
2019-04-07T00:27:41.198Z,26.77
2019-04-07T00:30:10.542Z,24.50
2019-04-07T00:32:39.662Z,23.20
2019-04-07T00:35:08.889Z,24.50
2019-04-07T00:37:38.333Z,25.53
2019-04-07T00:40:07.646Z,23.90
2019-04-07T00:42:36.737Z,25.80
2019-04-07T00:45:06.309Z,25.47
2019-04-07T00:47:35.354Z,24.47
2019-04-07T00:50:04.750Z,23.87
2019-04-07T00:52:33.805Z,23.80
2019-04-07T00:55:03.437Z,24.30
2019-04-07T00:57:32.897Z,22.97
2019-04-07T01:00:02.855Z,22.20
2019-04-07T01:02:32.388Z,24.57
2019-04-07T01:05:01.749Z,25.10
2019-04-07T01:07:30.900Z,24.13
2019-04-07T01:10:00.736Z,24.33
2019-04-07T01:12:30.259Z,25.30
2019-04-07T01:14:59.628Z,26.77
2019-04-07T01:17:29.126Z,24.37
2019-04-07T01:19:58.660Z,23.20
2019-04-07T01:22:27.881Z,23.60
2019-04-07T01:24:57.646Z,24.90
2019-04-07T01:27:27.021Z,25.37
2019-04-07T01:29:56.423Z,23.43
2019-04-07T01:32:25.725Z,22.67
2019-04-07T01:34:55.068Z,23.63
2019-04-07T01:37:24.211Z,25.30
2019-04-07T01:39:53.843Z,23.50
2019-04-07T01:42:41.098Z,25.97
2019-04-07T01:45:34.406Z,24.33
2019-04-07T01:48:17.650Z,25.23
2019-04-07T01:51:00.614Z,25.80
2019-04-07T01:53:56.411Z,24.53
2019-04-07T01:56:56.389Z,24.30
2019-04-07T01:59:44.395Z,25.07
2019-04-07T02:02:30.208Z,23.37
2019-04-07T02:05:27.020Z,24.20
2019-04-07T02:08:12.142Z,26.80
2019-04-07T02:10:55.084Z,24.37
2019-04-07T02:13:39.331Z,24.87
2019-04-07T02:16:42.329Z,25.07
2019-04-07T02:19:33.777Z,23.80
2019-04-07T02:22:13.548Z,23.40
2019-04-07T02:25:05.466Z,25.43
2019-04-07T02:27:56.882Z,24.40
2019-04-07T02:30:37.440Z,23.67
2019-04-07T02:33:28.862Z,26.10
2019-04-07T02:36:24.785Z,24.90
2019-04-07T02:39:00.074Z,24.60
2019-04-07T02:41:36.032Z,24.50
2019-04-07T02:44:25.351Z,22.60
2019-04-07T02:47:12.484Z,22.97
2019-04-07T02:50:15.639Z,23.87
2019-04-07T02:53:03.877Z,22.20
2019-04-07T02:55:47.078Z,24.00
2019-04-07T02:58:25.510Z,22.40
2019-04-07T03:01:14.110Z,25.13
2019-04-07T03:04:05.143Z,23.40
2019-04-07T03:06:54.480Z,22.97
2019-04-07T03:09:42.778Z,25.57
2019-04-07T03:12:30.791Z,23.10
2019-04-07T03:15:11.758Z,24.30
2019-04-07T03:17:57.307Z,26.47
2019-04-07T03:20:54.614Z,23.27
2019-04-07T03:23:51.678Z,24.50
2019-04-07T03:26:38.369Z,24.90
2019-04-07T03:29:16.438Z,24.93
2019-04-07T03:32:08.491Z,24.60
2019-04-07T03:35:00.103Z,27.33
2019-04-07T03:37:51.507Z,26.63
2019-04-07T03:40:30.533Z,26.30
2019-04-07T03:43:25.383Z,26.63
2019-04-07T03:46:12.127Z,24.93
2019-04-07T03:48:46.007Z,25.33
2019-04-07T03:51:37.743Z,24.10
2019-04-07T03:54:12.197Z,26.70
2019-04-07T03:57:00.516Z,24.63
2019-04-07T03:59:47.235Z,25.57
2019-04-07T04:02:39.143Z,25.27
2019-04-07T04:05:30.206Z,27.30
2019-04-07T04:08:09.875Z,25.20
2019-04-07T04:10:48.502Z,29.33
2019-04-07T04:13:45.762Z,26.57
2019-04-07T04:16:28.666Z,26.47
2019-04-07T04:18:59.936Z,25.97
2019-04-07T04:21:29.208Z,26.57
2019-04-07T04:23:59.049Z,27.10
2019-04-07T04:26:28.976Z,26.30
2019-04-07T04:28:58.318Z,29.47
2019-04-07T04:31:27.473Z,27.23
2019-04-07T04:33:56.531Z,26.00
2019-04-07T04:36:25.580Z,27.47
2019-04-07T04:38:55.544Z,29.13
2019-04-07T04:41:25.225Z,27.50
2019-04-07T04:43:54.721Z,27.40
2019-04-07T04:46:24.101Z,27.00
2019-04-07T04:48:53.378Z,28.23
2019-04-07T04:51:23.928Z,25.47
2019-04-07T04:53:53.718Z,25.57
2019-04-07T04:56:23.002Z,27.70
2019-04-07T04:58:53.217Z,25.83
2019-04-07T05:01:23.009Z,28.47
2019-04-07T05:03:52.540Z,25.07
2019-04-07T05:06:22.119Z,26.90
2019-04-07T05:08:51.267Z,25.47
2019-04-07T05:11:20.327Z,26.20
2019-04-07T05:13:50.163Z,27.20
2019-04-07T05:16:19.786Z,25.70
2019-04-07T05:18:49.186Z,26.47
2019-04-07T05:21:18.558Z,25.70
2019-04-07T05:23:48.039Z,25.73
2019-04-07T05:26:17.732Z,25.87
2019-04-07T05:28:47.159Z,25.23
2019-04-07T05:31:16.239Z,26.27
2019-04-07T05:33:45.358Z,25.90
2019-04-07T05:36:14.786Z,24.80
2019-04-07T05:38:44.568Z,25.17
2019-04-07T05:41:14.158Z,25.87
2019-04-07T05:43:43.182Z,25.70
2019-04-07T05:46:12.667Z,26.17
2019-04-07T05:48:42.103Z,27.33
2019-04-07T05:51:11.158Z,26.27
2019-04-07T05:53:44.075Z,25.33
2019-04-07T05:56:11.127Z,25.37
2019-04-07T05:58:41.838Z,24.40
2019-04-07T06:01:11.797Z,25.30
2019-04-07T06:03:42.819Z,27.63
2019-04-07T06:06:13.478Z,25.73
2019-04-07T06:08:42.649Z,27.97
2019-04-07T06:11:11.663Z,25.17
2019-04-07T06:13:43.825Z,26.43
2019-04-07T06:16:11.767Z,25.47
2019-04-07T06:18:41.147Z,25.37
2019-04-07T06:21:10.256Z,25.67
2019-04-07T06:23:39.581Z,25.63
2019-04-07T06:26:11.194Z,25.10
2019-04-07T06:28:40.446Z,26.00
2019-04-07T06:31:10.105Z,26.07
2019-04-07T06:33:39.422Z,27.93
2019-04-07T06:36:09.316Z,26.23
2019-04-07T06:38:43.278Z,26.27
2019-04-07T06:41:10.445Z,25.10
2019-04-07T06:43:40.202Z,25.40
2019-04-07T06:46:41.376Z,25.73
2019-04-07T06:49:35.494Z,25.67
2019-04-07T06:52:30.270Z,25.80
2019-04-07T06:55:33.360Z,25.30
2019-04-07T06:58:20.831Z,24.90
2019-04-07T07:01:14.551Z,25.00
2019-04-07T07:04:09.359Z,25.83
2019-04-07T07:06:57.876Z,27.10
2019-04-07T07:09:38.709Z,25.33
2019-04-07T07:12:23.589Z,25.60
2019-04-07T07:15:17.951Z,27.00
2019-04-07T07:18:06.118Z,24.60
2019-04-07T07:21:04.055Z,26.53
2019-04-07T07:23:36.609Z,24.73
2019-04-07T07:26:06.046Z,25.27
2019-04-07T07:28:35.928Z,24.60
2019-04-07T07:31:05.983Z,27.87
2019-04-07T07:33:38.928Z,25.87
2019-04-07T07:36:06.051Z,25.77
2019-04-07T07:38:35.165Z,24.67
2019-04-07T07:41:05.114Z,23.40
2019-04-07T07:43:34.257Z,25.87
2019-04-07T07:46:03.264Z,23.50
2019-04-07T07:48:32.464Z,25.00
2019-04-07T07:51:02.409Z,27.33
2019-04-07T07:53:31.744Z,24.63
2019-04-07T07:56:01.079Z,23.50
2019-04-07T07:58:32.787Z,22.10
2019-04-07T08:01:01.526Z,26.00
2019-04-07T08:03:31.490Z,23.80
2019-04-07T08:06:04.832Z,26.03
2019-04-07T08:08:33.098Z,26.07
2019-04-07T08:11:02.808Z,25.17
2019-04-07T08:13:32.489Z,25.60
2019-04-07T08:16:01.987Z,25.73
2019-04-07T08:18:31.187Z,25.67
2019-04-07T08:21:00.192Z,22.67
2019-04-07T08:23:29.695Z,23.53
2019-04-07T08:25:59.132Z,22.70
2019-04-07T08:28:28.184Z,21.03
2019-04-07T08:30:57.524Z,19.57
2019-04-07T08:33:28.736Z,19.47
2019-04-07T08:35:57.960Z,18.30
2019-04-07T08:38:28.226Z,17.07
2019-04-07T08:40:57.682Z,15.77
2019-04-07T08:43:27.648Z,15.07
2019-04-07T08:45:56.785Z,16.27
2019-04-07T08:48:25.803Z,16.83
2019-04-07T08:50:57.243Z,15.30
2019-04-07T08:53:25.800Z,16.60
2019-04-07T08:55:55.261Z,15.57
2019-04-07T08:58:27.892Z,15.60
2019-04-07T09:00:56.142Z,14.90
2019-04-07T09:03:25.226Z,14.20
2019-04-07T09:05:56.588Z,13.40
2019-04-07T09:08:25.116Z,14.53
2019-04-07T09:11:09.099Z,15.73
2019-04-07T09:13:38.487Z,14.37
2019-04-07T09:16:24.636Z,16.17
2019-04-07T09:19:10.326Z,15.47
2019-04-07T09:21:50.450Z,16.63
2019-04-07T09:24:56.648Z,15.80
2019-04-07T09:27:53.970Z,16.93
2019-04-07T09:30:33.327Z,16.90
2019-04-07T09:33:20.134Z,18.10
2019-04-07T09:36:06.980Z,18.40
2019-04-07T09:38:51.305Z,18.07
2019-04-07T09:41:48.600Z,16.83
2019-04-07T09:44:33.996Z,17.13
2019-04-07T09:47:24.468Z,16.63
2019-04-07T09:50:18.558Z,16.20
2019-04-07T09:53:08.595Z,17.50
2019-04-07T09:55:56.856Z,16.87
2019-04-07T09:58:42.685Z,16.60
2019-04-07T10:01:36.451Z,15.33
2019-04-07T10:04:14.342Z,16.63
2019-04-07T10:06:53.235Z,16.43
2019-04-07T10:09:35.756Z,16.40
2019-04-07T10:12:36.170Z,16.63
2019-04-07T10:15:15.385Z,15.87
2019-04-07T10:18:06.582Z,16.90
2019-04-07T10:21:00.978Z,15.93
2019-04-07T10:23:58.697Z,18.40
2019-04-07T10:27:02.550Z,17.67
2019-04-07T10:29:51.385Z,15.77
2019-04-07T10:32:58.403Z,16.20
2019-04-07T10:35:51.342Z,16.90
2019-04-07T10:38:26.975Z,17.50
2019-04-07T10:41:08.452Z,16.60
2019-04-07T10:43:55.730Z,15.40
2019-04-07T10:46:46.013Z,14.80
2019-04-07T10:49:32.984Z,16.03
2019-04-07T10:52:12.993Z,15.50
2019-04-07T10:55:13.167Z,16.70
2019-04-07T10:57:55.200Z,17.60
2019-04-07T11:00:48.789Z,16.40
2019-04-07T11:03:36.272Z,16.60
2019-04-07T11:06:27.367Z,16.77
2019-04-07T11:09:21.220Z,16.60
2019-04-07T11:11:57.534Z,17.27
2019-04-07T11:14:45.625Z,18.87
2019-04-07T11:17:48.843Z,19.47
2019-04-07T11:20:34.498Z,18.20
2019-04-07T11:23:21.774Z,17.33
2019-04-07T11:26:07.157Z,19.90
2019-04-07T11:28:44.640Z,18.30
2019-04-07T11:31:45.021Z,18.97
2019-04-07T11:34:25.698Z,18.40
2019-04-07T11:37:22.201Z,17.50
2019-04-07T11:40:10.695Z,17.00
2019-04-07T11:42:58.902Z,16.07
2019-04-07T11:45:56.178Z,16.50
2019-04-07T11:48:37.178Z,17.33
2019-04-07T11:51:26.592Z,18.50
2019-04-07T11:54:11.558Z,16.03
2019-04-07T11:56:57.618Z,17.63
2019-04-07T11:59:44.763Z,15.70
2019-04-07T12:02:24.706Z,17.70
2019-04-07T12:05:08.227Z,16.73
2019-04-07T12:07:55.239Z,16.50
2019-04-07T12:10:40.159Z,16.70
2019-04-07T12:13:31.452Z,18.90
2019-04-07T12:16:11.110Z,16.00
2019-04-07T12:19:11.670Z,14.70
2019-04-07T12:21:57.891Z,16.90
2019-04-07T12:24:52.203Z,17.83
2019-04-07T12:27:58.335Z,15.90
2019-04-07T12:30:44.626Z,17.23
2019-04-07T12:33:45.061Z,17.37
2019-04-07T12:36:36.259Z,18.23
2019-04-07T12:39:25.637Z,16.80
2019-04-07T12:42:23.271Z,17.43
2019-04-07T12:45:07.967Z,16.37
2019-04-07T12:47:55.053Z,17.93
2019-04-07T12:51:01.982Z,17.40
2019-04-07T12:53:53.779Z,15.63
2019-04-07T12:56:40.794Z,17.13
2019-04-07T12:59:32.512Z,15.43
2019-04-07T13:02:12.441Z,16.03
2019-04-07T13:04:48.210Z,15.53
2019-04-07T13:07:42.414Z,16.17
2019-04-07T13:10:20.689Z,14.30
2019-04-07T13:13:16.996Z,14.60
2019-04-07T13:16:05.871Z,16.63
2019-04-07T13:18:50.533Z,16.87
2019-04-07T13:21:39.296Z,15.60
2019-04-07T13:24:43.727Z,14.80
2019-04-07T13:27:23.943Z,14.30
2019-04-07T13:30:02.832Z,15.90
2019-04-07T13:32:43.576Z,14.10
2019-04-07T13:35:38.246Z,13.93
2019-04-07T13:38:29.508Z,13.57
2019-04-07T13:41:41.673Z,13.83
2019-04-07T13:44:26.115Z,14.80
2019-04-07T13:47:06.331Z,14.80
2019-04-07T13:50:10.555Z,15.00
2019-04-07T13:52:59.019Z,14.10
2019-04-07T13:55:52.021Z,13.20
2019-04-07T13:58:42.989Z,13.83
2019-04-07T14:01:20.028Z,13.53
2019-04-07T14:04:06.866Z,13.67
2019-04-07T14:06:56.629Z,14.00
2019-04-07T14:09:44.104Z,14.47
2019-04-07T14:12:45.396Z,16.20
2019-04-07T14:15:36.995Z,15.90
2019-04-07T14:18:24.518Z,15.20
2019-04-07T14:21:24.662Z,16.10
2019-04-07T14:24:25.184Z,15.53
2019-04-07T14:27:19.693Z,14.47
2019-04-07T14:30:17.001Z,16.33
2019-04-07T14:33:13.666Z,14.70
2019-04-07T14:36:13.924Z,14.03
2019-04-07T14:39:02.305Z,13.90
2019-04-07T14:42:03.959Z,14.60
2019-04-07T14:44:33.659Z,12.20
2019-04-07T14:47:14.444Z,13.50
2019-04-07T14:50:00.553Z,14.07
2019-04-07T14:52:41.132Z,13.50
2019-04-07T14:55:24.802Z,13.70
2019-04-07T14:58:18.713Z,13.27
2019-04-07T15:01:05.782Z,13.67
2019-04-07T15:03:33.525Z,12.90
2019-04-07T15:06:02.893Z,12.67
2019-04-07T15:08:36.963Z,12.53
2019-04-07T15:11:24.956Z,12.33
2019-04-07T15:13:56.941Z,12.83
2019-04-07T15:16:24.912Z,12.60
2019-04-07T15:18:55.097Z,12.77
2019-04-07T15:21:25.324Z,13.60
2019-04-07T15:23:54.638Z,13.30
2019-04-07T15:26:24.669Z,12.70
2019-04-07T15:28:53.878Z,13.37
2019-04-07T15:31:24.878Z,13.77
2019-04-07T15:33:54.006Z,12.50
2019-04-07T15:36:23.261Z,12.70
2019-04-07T15:38:55.507Z,12.40
2019-04-07T15:41:23.387Z,13.80
2019-04-07T15:43:54.856Z,12.87
2019-04-07T15:46:23.670Z,13.30
2019-04-07T15:48:55.605Z,13.20
2019-04-07T15:51:23.876Z,14.27
2019-04-07T15:53:56.557Z,14.00
2019-04-07T15:56:26.028Z,13.50
2019-04-07T15:58:58.055Z,13.17
2019-04-07T16:01:28.033Z,12.90
2019-04-07T16:03:57.191Z,13.73
2019-04-07T16:06:27.934Z,13.30
2019-04-07T16:09:01.014Z,13.53
2019-04-07T16:11:30.591Z,13.40
2019-04-07T16:14:02.659Z,13.50
2019-04-07T16:16:31.891Z,14.43
2019-04-07T16:19:01.420Z,13.10
2019-04-07T16:21:31.022Z,12.37
2019-04-07T16:24:00.753Z,14.00
2019-04-07T16:26:31.115Z,12.97
2019-04-07T16:29:01.265Z,15.73
2019-04-07T16:31:31.133Z,13.10
2019-04-07T16:34:00.384Z,12.97
2019-04-07T16:36:30.336Z,12.87
2019-04-07T16:39:01.957Z,12.20
2019-04-07T16:41:30.402Z,12.87
2019-04-07T16:43:59.460Z,13.03
2019-04-07T16:46:28.516Z,12.67
2019-04-07T16:48:58.680Z,12.50
2019-04-07T16:51:29.690Z,12.13
2019-04-07T16:53:58.868Z,12.60
2019-04-07T16:56:28.683Z,12.87
2019-04-07T16:58:58.572Z,13.70
2019-04-07T17:01:28.449Z,14.60
2019-04-07T17:03:59.236Z,12.50
2019-04-07T17:06:32.733Z,11.43
2019-04-07T17:09:00.436Z,11.93
2019-04-07T17:11:30.107Z,11.20
2019-04-07T17:14:02.010Z,8.40
2019-04-07T17:16:30.168Z,8.67
2019-04-07T17:18:59.869Z,8.50
2019-04-07T17:21:29.907Z,7.60
2019-04-07T17:23:59.324Z,7.73
2019-04-07T17:26:28.441Z,8.17
2019-04-07T17:28:58.599Z,7.53
2019-04-07T17:31:31.839Z,7.23
2019-04-07T17:34:00.952Z,6.80
2019-04-07T17:36:31.352Z,7.13
2019-04-07T17:39:14.496Z,6.00
2019-04-07T17:41:43.740Z,7.10
2019-04-07T17:44:24.486Z,7.23
2019-04-07T17:47:11.941Z,7.70
2019-04-07T17:49:59.324Z,6.27
2019-04-07T17:52:51.248Z,6.30
2019-04-07T17:55:38.064Z,6.27
2019-04-07T17:58:16.169Z,5.50
2019-04-07T18:01:11.503Z,6.23
2019-04-07T18:04:02.646Z,6.03
2019-04-07T18:06:49.507Z,5.10
2019-04-07T18:09:36.093Z,5.43
2019-04-07T18:12:19.819Z,5.43
2019-04-07T18:15:09.877Z,5.00
2019-04-07T18:18:01.687Z,5.10
2019-04-07T18:20:42.323Z,4.80
2019-04-07T18:23:30.015Z,4.50
2019-04-07T18:26:27.425Z,5.20
2019-04-07T18:29:06.928Z,5.30
2019-04-07T18:31:59.855Z,4.50
2019-04-07T18:34:52.846Z,4.67
2019-04-07T18:37:38.699Z,4.83
2019-04-07T18:40:43.999Z,5.80
2019-04-07T18:43:26.680Z,3.97
2019-04-07T18:46:07.264Z,5.63
2019-04-07T18:48:53.173Z,4.80
2019-04-07T18:51:31.443Z,4.87
2019-04-07T18:54:30.789Z,4.67
2019-04-07T18:57:19.471Z,4.93
2019-04-07T19:00:13.388Z,6.17
2019-04-07T19:02:57.787Z,4.67
2019-04-07T19:05:36.807Z,5.07
2019-04-07T19:08:25.073Z,5.20
2019-04-07T19:11:14.940Z,4.63
2019-04-07T19:14:20.468Z,4.20
2019-04-07T19:16:47.856Z,4.87
2019-04-07T19:19:42.001Z,4.67
2019-04-07T19:22:49.114Z,4.83
2019-04-07T19:25:37.712Z,5.03
2019-04-07T19:28:22.030Z,5.23
2019-04-07T19:31:03.337Z,4.93
2019-04-07T19:33:44.998Z,4.47
2019-04-07T19:36:42.786Z,5.20
2019-04-07T19:39:24.994Z,5.37
2019-04-07T19:42:12.372Z,4.97
2019-04-07T19:45:00.475Z,5.30
2019-04-07T19:47:54.895Z,6.33
2019-04-07T19:50:47.509Z,5.77
2019-04-07T19:53:33.146Z,5.60
2019-04-07T19:56:25.152Z,5.53
2019-04-07T19:59:10.017Z,6.30
2019-04-07T20:02:00.490Z,7.10
2019-04-07T20:04:42.347Z,6.77
2019-04-07T20:07:31.220Z,6.20
2019-04-07T20:10:16.561Z,7.00
2019-04-07T20:13:02.540Z,6.20
2019-04-07T20:15:50.662Z,7.30
2019-04-07T20:18:35.366Z,7.10
2019-04-07T20:21:39.817Z,6.03
2019-04-07T20:24:40.170Z,6.30
2019-04-07T20:27:22.553Z,6.43
2019-04-07T20:30:23.632Z,7.00
2019-04-07T20:33:14.350Z,5.90
2019-04-07T20:35:53.610Z,6.10
2019-04-07T20:38:40.172Z,6.70
2019-04-07T20:41:31.554Z,6.17
2019-04-07T20:44:19.637Z,6.20
2019-04-07T20:47:06.650Z,6.90
2019-04-07T20:50:07.609Z,6.10
2019-04-07T20:53:07.202Z,5.67
2019-04-07T20:55:39.552Z,6.30
2019-04-07T20:58:26.954Z,6.10
2019-04-07T21:01:20.893Z,5.70
2019-04-07T21:04:22.151Z,5.07
2019-04-07T21:07:20.638Z,6.30
2019-04-07T21:09:55.523Z,5.40
2019-04-07T21:12:45.422Z,5.93
2019-04-07T21:15:43.161Z,5.40
2019-04-07T21:18:40.341Z,5.77
2019-04-07T21:21:19.258Z,5.17
2019-04-07T21:24:10.344Z,6.13
2019-04-07T21:26:59.339Z,5.73
2019-04-07T21:29:44.543Z,5.93
2019-04-07T21:32:33.214Z,5.77
2019-04-07T21:35:34.732Z,6.37
2019-04-07T21:38:20.873Z,6.20
2019-04-07T21:41:16.905Z,5.67
2019-04-07T21:44:08.038Z,5.00
2019-04-07T21:46:54.681Z,5.60
2019-04-07T21:49:43.958Z,4.87
2019-04-07T21:52:24.492Z,5.80
2019-04-07T21:55:01.671Z,5.97
2019-04-07T21:57:59.702Z,5.43
2019-04-07T22:00:49.052Z,5.93
2019-04-07T22:03:40.204Z,5.73
2019-04-07T22:06:29.454Z,5.93
2019-04-07T22:09:19.461Z,6.00
2019-04-07T22:11:49.487Z,5.97
2019-04-07T22:14:18.849Z,6.20
2019-04-07T22:16:47.955Z,5.93
2019-04-07T22:19:17.631Z,5.57
2019-04-07T22:21:46.803Z,5.13
2019-04-07T22:24:15.960Z,5.90
2019-04-07T22:26:49.177Z,5.53
2019-04-07T22:29:16.213Z,5.87
2019-04-07T22:31:51.491Z,5.50
2019-04-07T22:34:20.891Z,4.67
2019-04-07T22:36:50.009Z,6.00
2019-04-07T22:39:19.282Z,5.53
2019-04-07T22:41:48.486Z,5.63
2019-04-07T22:44:19.935Z,6.20
2019-04-07T22:46:51.251Z,5.10
2019-04-07T22:49:19.820Z,5.37
2019-04-07T22:51:49.821Z,5.50
2019-04-07T22:54:19.816Z,4.63
2019-04-07T22:56:48.884Z,4.67
2019-04-07T22:59:17.923Z,4.83
2019-04-07T23:01:47.362Z,4.13
2019-04-07T23:04:16.413Z,4.20
2019-04-07T23:06:45.677Z,4.23
2019-04-07T23:09:15.521Z,4.40
2019-04-07T23:11:46.134Z,4.63
2019-04-07T23:14:15.742Z,4.83
2019-04-07T23:16:44.806Z,4.70
2019-04-07T23:19:14.341Z,4.30
2019-04-07T23:21:43.351Z,3.47
2019-04-07T23:24:12.931Z,4.27
2019-04-07T23:26:42.570Z,4.23
2019-04-07T23:29:12.138Z,4.07
2019-04-07T23:31:41.791Z,4.03
2019-04-07T23:34:10.944Z,4.07
2019-04-07T23:36:40.017Z,3.50
2019-04-07T23:39:09.956Z,3.73
2019-04-07T23:41:39.453Z,3.77
2019-04-07T23:44:09.417Z,3.00
2019-04-07T23:46:39.342Z,3.70
2019-04-07T23:49:08.358Z,4.03
2019-04-07T23:51:37.394Z,3.97
2019-04-07T23:54:10.985Z,3.87
2019-04-07T23:56:41.998Z,3.50
2019-04-07T23:59:11.820Z,4.10
